sensor_id;sensor_type;location;lat;lon;timestamp;pressure;altitude;pressure_sealevel;temperature;humidity
16544;BME280;8384;47.996;7.786;2022-09-23T00:01:21;98989.25;;;8.35;92.76
16544;BME280;8384;47.996;7.786;2022-09-23T00:03:47;98991.06;;;8.30;92.35
16544;BME280;8384;47.996;7.786;2022-09-23T00:06:18;98990.47;;;8.28;92.63
16544;BME280;8384;47.996;7.786;2022-09-23T00:08:44;98989.66;;;8.27;92.01
16544;BME280;8384;47.996;7.786;2022-09-23T00:11:13;98985.38;;;8.31;92.41
16544;BME280;8384;47.996;7.786;2022-09-23T00:13:41;98986.47;;;8.30;92.11
16544;BME280;8384;47.996;7.786;2022-09-23T00:16:09;98991.91;;;8.30;91.39
16544;BME280;8384;47.996;7.786;2022-09-23T00:18:35;98991.19;;;8.23;92.25
16544;BME280;8384;47.996;7.786;2022-09-23T00:21:06;98970.72;;;8.08;92.37
16544;BME280;8384;47.996;7.786;2022-09-23T00:23:32;98977.28;;;8.07;92.60
16544;BME280;8384;47.996;7.786;2022-09-23T00:26:01;98984.69;;;8.24;92.35
16544;BME280;8384;47.996;7.786;2022-09-23T00:28:27;98968.81;;;8.21;92.47
16544;BME280;8384;47.996;7.786;2022-09-23T00:30:52;98962.00;;;8.06;91.83
16544;BME280;8384;47.996;7.786;2022-09-23T00:33:17;98976.75;;;8.10;92.77
16544;BME280;8384;47.996;7.786;2022-09-23T00:35:43;98984.34;;;8.08;93.40
16544;BME280;8384;47.996;7.786;2022-09-23T00:38:08;98952.56;;;7.73;94.19
16544;BME280;8384;47.996;7.786;2022-09-23T00:40:33;98976.91;;;7.92;94.26
16544;BME280;8384;47.996;7.786;2022-09-23T00:43:00;98977.50;;;8.06;93.35
16544;BME280;8384;47.996;7.786;2022-09-23T00:45:26;98970.47;;;8.22;91.82
16544;BME280;8384;47.996;7.786;2022-09-23T00:47:59;98965.75;;;8.29;90.41
16544;BME280;8384;47.996;7.786;2022-09-23T00:50:32;98939.16;;;8.36;88.96
16544;BME280;8384;47.996;7.786;2022-09-23T00:53:03;98964.81;;;8.64;87.69
16544;BME280;8384;47.996;7.786;2022-09-23T00:55:40;98962.22;;;8.87;85.42
16544;BME280;8384;47.996;7.786;2022-09-23T00:58:09;98959.91;;;8.95;83.33
16544;BME280;8384;47.996;7.786;2022-09-23T01:00:37;98958.78;;;9.08;81.86
16544;BME280;8384;47.996;7.786;2022-09-23T01:03:05;98958.56;;;9.10;82.26
16544;BME280;8384;47.996;7.786;2022-09-23T01:05:32;98931.94;;;9.00;81.16
16544;BME280;8384;47.996;7.786;2022-09-23T01:07:58;98952.44;;;9.20;80.58
16544;BME280;8384;47.996;7.786;2022-09-23T01:10:28;98934.50;;;9.07;80.84
16544;BME280;8384;47.996;7.786;2022-09-23T01:13:21;98958.72;;;9.20;80.67
16544;BME280;8384;47.996;7.786;2022-09-23T01:16:01;98938.31;;;9.06;80.06
16544;BME280;8384;47.996;7.786;2022-09-23T01:18:39;98958.97;;;9.19;80.17
16544;BME280;8384;47.996;7.786;2022-09-23T01:27:21;98953.69;;;9.12;80.29
16544;BME280;8384;47.996;7.786;2022-09-23T01:33:12;98951.38;;;9.21;79.03
16544;BME280;8384;47.996;7.786;2022-09-23T01:44:09;98937.88;;;8.97;78.61
16544;BME280;8384;47.996;7.786;2022-09-23T01:46:40;98955.34;;;9.13;79.53
16544;BME280;8384;47.996;7.786;2022-09-23T01:49:24;98950.50;;;9.03;79.88
16544;BME280;8384;47.996;7.786;2022-09-23T01:52:04;98953.63;;;8.78;81.58
16544;BME280;8384;47.996;7.786;2022-09-23T01:54:38;98911.66;;;8.21;84.68
16544;BME280;8384;47.996;7.786;2022-09-23T01:57:17;98920.16;;;8.24;86.23
16544;BME280;8384;47.996;7.786;2022-09-23T01:59:49;98950.75;;;7.91;89.26
16544;BME280;8384;47.996;7.786;2022-09-23T02:02:21;98948.53;;;7.52;92.16
16544;BME280;8384;47.996;7.786;2022-09-23T02:04:57;98938.59;;;7.34;93.73
16544;BME280;8384;47.996;7.786;2022-09-23T02:07:31;98945.09;;;7.57;92.37
16544;BME280;8384;47.996;7.786;2022-09-23T02:10:11;98953.38;;;7.62;91.81
16544;BME280;8384;47.996;7.786;2022-09-23T02:12:40;98953.25;;;7.57;90.89
16544;BME280;8384;47.996;7.786;2022-09-23T02:15:13;98958.34;;;7.65;90.83
16544;BME280;8384;47.996;7.786;2022-09-23T02:17:47;98959.66;;;7.62;91.11
16544;BME280;8384;47.996;7.786;2022-09-23T02:20:18;98940.03;;;7.37;91.47
16544;BME280;8384;47.996;7.786;2022-09-23T02:23:02;98961.88;;;7.30;92.19
16544;BME280;8384;47.996;7.786;2022-09-23T02:25:42;98939.63;;;7.09;92.72
16544;BME280;8384;47.996;7.786;2022-09-23T02:28:17;98971.66;;;7.19;93.22
16544;BME280;8384;47.996;7.786;2022-09-23T02:30:52;98968.84;;;7.14;93.08
16544;BME280;8384;47.996;7.786;2022-09-23T02:33:29;98962.22;;;7.10;93.24
16544;BME280;8384;47.996;7.786;2022-09-23T02:36:25;98962.25;;;7.22;92.71
16544;BME280;8384;47.996;7.786;2022-09-23T02:38:58;98934.31;;;7.14;92.91
16544;BME280;8384;47.996;7.786;2022-09-23T02:41:35;98965.41;;;7.18;92.35
16544;BME280;8384;47.996;7.786;2022-09-23T02:44:10;98957.72;;;7.03;93.12
16544;BME280;8384;47.996;7.786;2022-09-23T02:46:37;98957.34;;;7.00;93.28
16544;BME280;8384;47.996;7.786;2022-09-23T02:49:12;98952.28;;;7.03;93.99
16544;BME280;8384;47.996;7.786;2022-09-23T02:51:39;98935.03;;;7.10;92.82
16544;BME280;8384;47.996;7.786;2022-09-23T02:54:11;98938.09;;;7.13;92.98
16544;BME280;8384;47.996;7.786;2022-09-23T02:56:39;98941.75;;;7.07;93.20
16544;BME280;8384;47.996;7.786;2022-09-23T02:59:04;98930.53;;;7.03;94.06
16544;BME280;8384;47.996;7.786;2022-09-23T03:01:47;98937.00;;;6.90;95.02
16544;BME280;8384;47.996;7.786;2022-09-23T03:07:08;98922.19;;;6.74;95.69
16544;BME280;8384;47.996;7.786;2022-09-23T03:12:24;98927.94;;;6.66;97.04
16544;BME280;8384;47.996;7.786;2022-09-23T03:15:07;98918.53;;;6.69;97.60
16544;BME280;8384;47.996;7.786;2022-09-23T03:17:46;98929.00;;;6.65;97.37
16544;BME280;8384;47.996;7.786;2022-09-23T03:20:22;98921.69;;;6.66;97.68
16544;BME280;8384;47.996;7.786;2022-09-23T03:22:52;98926.16;;;6.60;97.92
16544;BME280;8384;47.996;7.786;2022-09-23T03:25:22;98928.88;;;6.60;97.75
16544;BME280;8384;47.996;7.786;2022-09-23T03:27:48;98925.28;;;6.48;99.89
16544;BME280;8384;47.996;7.786;2022-09-23T03:30:14;98904.94;;;6.38;99.84
16544;BME280;8384;47.996;7.786;2022-09-23T03:32:43;98916.38;;;6.40;99.49
16544;BME280;8384;47.996;7.786;2022-09-23T03:35:10;98922.75;;;6.34;100.00
16544;BME280;8384;47.996;7.786;2022-09-23T03:37:41;98928.25;;;6.27;100.00
16544;BME280;8384;47.996;7.786;2022-09-23T03:40:14;98926.22;;;6.23;100.00
16544;BME280;8384;47.996;7.786;2022-09-23T03:42:40;98928.19;;;6.15;100.00
16544;BME280;8384;47.996;7.786;2022-09-23T03:45:09;98923.16;;;6.19;100.00
16544;BME280;8384;47.996;7.786;2022-09-23T03:47:37;98919.25;;;6.15;100.00
16544;BME280;8384;47.996;7.786;2022-09-23T03:50:04;98905.00;;;6.01;100.00
16544;BME280;8384;47.996;7.786;2022-09-23T03:52:29;98888.63;;;5.89;100.00
16544;BME280;8384;47.996;7.786;2022-09-23T03:54:55;98897.22;;;6.05;100.00
16544;BME280;8384;47.996;7.786;2022-09-23T03:57:21;98909.13;;;6.22;100.00
16544;BME280;8384;47.996;7.786;2022-09-23T03:59:49;98909.38;;;6.63;99.92
16544;BME280;8384;47.996;7.786;2022-09-23T04:02:15;98872.31;;;6.57;97.72
16544;BME280;8384;47.996;7.786;2022-09-23T04:04:41;98915.97;;;6.86;96.62
16544;BME280;8384;47.996;7.786;2022-09-23T04:07:08;98918.19;;;6.89;96.20
16544;BME280;8384;47.996;7.786;2022-09-23T04:09:33;98907.59;;;6.99;94.47
16544;BME280;8384;47.996;7.786;2022-09-23T04:11:59;98904.75;;;6.94;94.15
16544;BME280;8384;47.996;7.786;2022-09-23T04:14:25;98920.22;;;6.94;95.22
16544;BME280;8384;47.996;7.786;2022-09-23T04:16:50;98901.19;;;6.82;95.48
16544;BME280;8384;47.996;7.786;2022-09-23T04:19:16;98916.00;;;6.98;95.18
16544;BME280;8384;47.996;7.786;2022-09-23T04:21:42;98913.97;;;7.17;93.98
16544;BME280;8384;47.996;7.786;2022-09-23T04:24:09;98918.28;;;7.25;94.29
16544;BME280;8384;47.996;7.786;2022-09-23T04:26:35;98919.09;;;7.37;92.39
16544;BME280;8384;47.996;7.786;2022-09-23T04:29:00;98916.50;;;7.42;92.39
16544;BME280;8384;47.996;7.786;2022-09-23T04:31:26;98885.88;;;7.35;91.57
16544;BME280;8384;47.996;7.786;2022-09-23T04:33:52;98916.38;;;7.49;92.21
16544;BME280;8384;47.996;7.786;2022-09-23T04:36:17;98924.06;;;7.40;92.55
16544;BME280;8384;47.996;7.786;2022-09-23T04:38:46;98926.19;;;7.50;91.98
16544;BME280;8384;47.996;7.786;2022-09-23T04:41:12;98929.75;;;7.62;91.31
16544;BME280;8384;47.996;7.786;2022-09-23T04:43:38;98930.34;;;7.64;90.62
16544;BME280;8384;47.996;7.786;2022-09-23T04:46:06;98929.13;;;7.72;89.56
16544;BME280;8384;47.996;7.786;2022-09-23T04:48:32;98912.69;;;7.67;89.37
16544;BME280;8384;47.996;7.786;2022-09-23T04:51:14;98922.97;;;7.77;89.38
16544;BME280;8384;47.996;7.786;2022-09-23T04:53:42;98927.81;;;7.75;89.08
16544;BME280;8384;47.996;7.786;2022-09-23T04:56:28;98925.72;;;7.65;89.24
16544;BME280;8384;47.996;7.786;2022-09-23T04:58:54;98927.13;;;7.56;90.94
16544;BME280;8384;47.996;7.786;2022-09-23T05:01:23;98931.97;;;7.42;91.24
16544;BME280;8384;47.996;7.786;2022-09-23T05:03:54;98935.78;;;7.41;92.32
16544;BME280;8384;47.996;7.786;2022-09-23T05:06:20;98933.25;;;7.15;96.27
16544;BME280;8384;47.996;7.786;2022-09-23T05:08:47;98934.47;;;7.19;96.12
16544;BME280;8384;47.996;7.786;2022-09-23T05:11:14;98936.78;;;7.16;95.58
16544;BME280;8384;47.996;7.786;2022-09-23T05:13:39;98925.22;;;7.09;95.97
16544;BME280;8384;47.996;7.786;2022-09-23T05:16:07;98924.50;;;7.13;95.02
16544;BME280;8384;47.996;7.786;2022-09-23T05:18:33;98932.66;;;7.01;96.39
16544;BME280;8384;47.996;7.786;2022-09-23T05:21:00;98942.28;;;6.85;99.16
16544;BME280;8384;47.996;7.786;2022-09-23T05:23:26;98938.66;;;6.92;98.05
16544;BME280;8384;47.996;7.786;2022-09-23T05:26:03;98922.28;;;6.68;99.08
16544;BME280;8384;47.996;7.786;2022-09-23T05:28:30;98937.06;;;6.72;100.00
16544;BME280;8384;47.996;7.786;2022-09-23T05:31:09;98933.53;;;6.83;99.34
16544;BME280;8384;47.996;7.786;2022-09-23T05:33:36;98888.44;;;6.40;99.82
16544;BME280;8384;47.996;7.786;2022-09-23T05:36:03;98932.03;;;6.87;99.94
16544;BME280;8384;47.996;7.786;2022-09-23T05:38:30;98925.75;;;6.75;99.28
16544;BME280;8384;47.996;7.786;2022-09-23T05:43:21;98944.91;;;6.50;100.00
16544;BME280;8384;47.996;7.786;2022-09-23T05:45:46;98904.13;;;6.38;100.00
16544;BME280;8384;47.996;7.786;2022-09-23T05:48:11;98931.56;;;6.48;100.00
16544;BME280;8384;47.996;7.786;2022-09-23T05:50:36;98900.94;;;6.41;100.00
16544;BME280;8384;47.996;7.786;2022-09-23T05:53:02;98930.31;;;6.63;100.00
16544;BME280;8384;47.996;7.786;2022-09-23T05:55:27;98909.03;;;6.59;100.00
16544;BME280;8384;47.996;7.786;2022-09-23T05:57:52;98911.19;;;6.69;100.00
16544;BME280;8384;47.996;7.786;2022-09-23T06:00:18;98911.81;;;6.83;100.00
16544;BME280;8384;47.996;7.786;2022-09-23T06:02:43;98871.34;;;6.63;100.00
16544;BME280;8384;47.996;7.786;2022-09-23T06:05:10;98928.78;;;7.21;100.00
16544;BME280;8384;47.996;7.786;2022-09-23T06:07:36;98912.72;;;7.31;99.02
16544;BME280;8384;47.996;7.786;2022-09-23T06:10:02;98925.25;;;7.56;98.14
16544;BME280;8384;47.996;7.786;2022-09-23T06:12:28;98931.38;;;7.75;97.65
16544;BME280;8384;47.996;7.786;2022-09-23T06:14:53;98925.78;;;7.94;95.60
16544;BME280;8384;47.996;7.786;2022-09-23T06:17:18;98930.28;;;8.00;95.56
16544;BME280;8384;47.996;7.786;2022-09-23T06:19:43;98922.53;;;8.21;94.05
16544;BME280;8384;47.996;7.786;2022-09-23T06:22:08;98922.88;;;8.24;93.59
16544;BME280;8384;47.996;7.786;2022-09-23T06:24:35;98917.19;;;8.26;94.64
16544;BME280;8384;47.996;7.786;2022-09-23T06:27:00;98916.19;;;8.44;92.80
16544;BME280;8384;47.996;7.786;2022-09-23T06:29:26;98911.91;;;8.77;88.28
16544;BME280;8384;47.996;7.786;2022-09-23T06:31:52;98882.66;;;8.73;86.16
16544;BME280;8384;47.996;7.786;2022-09-23T06:34:17;98897.31;;;9.00;84.29
16544;BME280;8384;47.996;7.786;2022-09-23T06:36:43;98927.22;;;9.29;83.32
16544;BME280;8384;47.996;7.786;2022-09-23T06:39:08;98900.75;;;9.30;82.90
16544;BME280;8384;47.996;7.786;2022-09-23T06:41:34;98919.28;;;9.45;83.09
16544;BME280;8384;47.996;7.786;2022-09-23T06:43:59;98911.34;;;9.43;81.82
16544;BME280;8384;47.996;7.786;2022-09-23T06:46:24;98917.84;;;9.77;80.89
16544;BME280;8384;47.996;7.786;2022-09-23T06:48:49;98931.78;;;9.80;79.89
16544;BME280;8384;47.996;7.786;2022-09-23T06:51:15;98917.72;;;9.88;79.69
16544;BME280;8384;47.996;7.786;2022-09-23T06:53:44;98913.97;;;9.95;79.29
16544;BME280;8384;47.996;7.786;2022-09-23T06:56:10;98919.88;;;10.09;80.10
16544;BME280;8384;47.996;7.786;2022-09-23T06:58:36;98915.22;;;9.87;83.26
16544;BME280;8384;47.996;7.786;2022-09-23T07:01:08;98921.09;;;9.56;85.49
16544;BME280;8384;47.996;7.786;2022-09-23T07:03:34;98932.19;;;9.50;87.48
16544;BME280;8384;47.996;7.786;2022-09-23T07:06:00;98928.38;;;9.51;88.52
16544;BME280;8384;47.996;7.786;2022-09-23T07:08:27;98882.00;;;9.34;88.76
16544;BME280;8384;47.996;7.786;2022-09-23T07:10:55;98912.16;;;9.44;89.00
16544;BME280;8384;47.996;7.786;2022-09-23T07:13:20;98928.13;;;9.35;89.57
16544;BME280;8384;47.996;7.786;2022-09-23T07:15:56;98942.13;;;9.39;89.00
16544;BME280;8384;47.996;7.786;2022-09-23T07:18:27;98947.63;;;9.44;89.68
16544;BME280;8384;47.996;7.786;2022-09-23T07:20:54;98944.59;;;9.23;90.29
16544;BME280;8384;47.996;7.786;2022-09-23T07:23:22;98947.00;;;9.37;89.79
16544;BME280;8384;47.996;7.786;2022-09-23T07:25:47;98942.25;;;9.49;88.97
16544;BME280;8384;47.996;7.786;2022-09-23T07:28:15;98952.66;;;9.69;88.95
16544;BME280;8384;47.996;7.786;2022-09-23T07:30:40;98956.56;;;9.73;87.00
16544;BME280;8384;47.996;7.786;2022-09-23T07:33:07;98944.41;;;9.47;85.30
16544;BME280;8384;47.996;7.786;2022-09-23T07:35:33;98956.78;;;9.55;85.72
16544;BME280;8384;47.996;7.786;2022-09-23T07:37:59;98964.75;;;9.73;86.79
16544;BME280;8384;47.996;7.786;2022-09-23T07:40:24;98964.72;;;9.90;86.77
16544;BME280;8384;47.996;7.786;2022-09-23T07:42:50;98952.34;;;10.05;87.14
16544;BME280;8384;47.996;7.786;2022-09-23T07:45:15;98955.91;;;10.05;88.14
16544;BME280;8384;47.996;7.786;2022-09-23T07:47:41;98961.94;;;10.30;87.36
16544;BME280;8384;47.996;7.786;2022-09-23T07:50:07;98963.56;;;10.48;85.57
16544;BME280;8384;47.996;7.786;2022-09-23T07:52:36;98969.59;;;10.72;85.71
16544;BME280;8384;47.996;7.786;2022-09-23T07:55:05;98959.59;;;10.88;83.76
16544;BME280;8384;47.996;7.786;2022-09-23T07:57:31;98970.94;;;10.97;84.60
16544;BME280;8384;47.996;7.786;2022-09-23T07:59:57;98963.31;;;11.04;83.88
16544;BME280;8384;47.996;7.786;2022-09-23T08:02:23;98963.53;;;11.30;81.00
16544;BME280;8384;47.996;7.786;2022-09-23T08:04:48;98953.22;;;11.37;80.24
16544;BME280;8384;47.996;7.786;2022-09-23T08:07:14;98975.31;;;12.01;77.95
16544;BME280;8384;47.996;7.786;2022-09-23T08:09:41;98953.53;;;12.32;76.12
16544;BME280;8384;47.996;7.786;2022-09-23T08:12:08;98969.03;;;12.80;71.42
16544;BME280;8384;47.996;7.786;2022-09-23T08:14:34;98964.16;;;13.02;70.46
16544;BME280;8384;47.996;7.786;2022-09-23T08:16:59;98951.56;;;13.22;70.02
16544;BME280;8384;47.996;7.786;2022-09-23T08:19:24;98963.91;;;13.71;67.40
16544;BME280;8384;47.996;7.786;2022-09-23T08:21:50;98965.50;;;14.03;65.36
16544;BME280;8384;47.996;7.786;2022-09-23T08:24:20;98936.06;;;14.09;65.28
16544;BME280;8384;47.996;7.786;2022-09-23T08:26:47;98968.94;;;14.50;64.47
16544;BME280;8384;47.996;7.786;2022-09-23T08:29:14;98952.63;;;14.64;60.80
16544;BME280;8384;47.996;7.786;2022-09-23T08:31:41;98933.97;;;14.51;60.51
16544;BME280;8384;47.996;7.786;2022-09-23T08:34:07;98964.22;;;14.51;61.75
16544;BME280;8384;47.996;7.786;2022-09-23T08:36:32;98937.63;;;14.31;61.89
16544;BME280;8384;47.996;7.786;2022-09-23T08:38:58;98970.34;;;14.43;62.03
16544;BME280;8384;47.996;7.786;2022-09-23T08:44:28;98950.84;;;14.94;60.99
16544;BME280;8384;47.996;7.786;2022-09-23T08:50:26;98963.16;;;15.71;58.36
16544;BME280;8384;47.996;7.786;2022-09-23T08:52:54;98949.50;;;15.85;55.73
16544;BME280;8384;47.996;7.786;2022-09-23T08:55:28;98934.53;;;15.67;56.41
16544;BME280;8384;47.996;7.786;2022-09-23T09:01:11;98955.66;;;15.77;56.01
16544;BME280;8384;47.996;7.786;2022-09-23T09:03:48;98953.13;;;15.86;56.92
16544;BME280;8384;47.996;7.786;2022-09-23T09:09:27;98952.88;;;16.12;57.89
16544;BME280;8384;47.996;7.786;2022-09-23T09:14:49;98954.09;;;15.71;58.52
16544;BME280;8384;47.996;7.786;2022-09-23T09:20:17;98953.50;;;16.28;56.98
16544;BME280;8384;47.996;7.786;2022-09-23T09:22:52;98952.16;;;16.25;57.65
16544;BME280;8384;47.996;7.786;2022-09-23T09:25:53;98941.53;;;16.38;57.75
16544;BME280;8384;47.996;7.786;2022-09-23T09:28:25;98932.06;;;16.63;56.77
16544;BME280;8384;47.996;7.786;2022-09-23T09:31:15;98938.28;;;16.93;55.43
16544;BME280;8384;47.996;7.786;2022-09-23T09:33:52;98943.09;;;17.06;55.38
16544;BME280;8384;47.996;7.786;2022-09-23T09:36:30;98941.63;;;16.90;56.22
16544;BME280;8384;47.996;7.786;2022-09-23T09:39:00;98910.69;;;16.55;56.94
16544;BME280;8384;47.996;7.786;2022-09-23T09:41:26;98931.34;;;17.15;54.97
16544;BME280;8384;47.996;7.786;2022-09-23T09:43:56;98934.38;;;16.56;57.13
16544;BME280;8384;47.996;7.786;2022-09-23T09:46:51;98925.47;;;17.21;54.76
16544;BME280;8384;47.996;7.786;2022-09-23T09:49:26;98891.69;;;17.24;54.27
16544;BME280;8384;47.996;7.786;2022-09-23T09:52:19;98921.31;;;17.71;53.64
16544;BME280;8384;47.996;7.786;2022-09-23T09:54:47;98917.31;;;16.92;54.41
16544;BME280;8384;47.996;7.786;2022-09-23T09:57:32;98915.63;;;17.62;53.91
16544;BME280;8384;47.996;7.786;2022-09-23T10:00:37;98918.88;;;18.25;52.04
16544;BME280;8384;47.996;7.786;2022-09-23T10:03:30;98914.34;;;17.88;52.29
16544;BME280;8384;47.996;7.786;2022-09-23T10:05:57;98901.66;;;17.39;53.06
16544;BME280;8384;47.996;7.786;2022-09-23T10:08:30;98905.25;;;17.87;52.01
16544;BME280;8384;47.996;7.786;2022-09-23T10:11:04;98908.16;;;18.24;50.16
16544;BME280;8384;47.996;7.786;2022-09-23T10:13:31;98905.47;;;18.19;49.98
16544;BME280;8384;47.996;7.786;2022-09-23T10:15:58;98906.00;;;18.21;50.11
16544;BME280;8384;47.996;7.786;2022-09-23T10:18:29;98901.56;;;18.48;49.04
16544;BME280;8384;47.996;7.786;2022-09-23T10:21:05;98902.59;;;18.88;48.21
16544;BME280;8384;47.996;7.786;2022-09-23T10:23:31;98898.03;;;19.07;47.76
16544;BME280;8384;47.996;7.786;2022-09-23T10:25:59;98884.41;;;19.19;46.39
16544;BME280;8384;47.996;7.786;2022-09-23T10:31:11;98896.69;;;19.81;44.68
16544;BME280;8384;47.996;7.786;2022-09-23T10:36:24;98883.50;;;19.55;43.80
16544;BME280;8384;47.996;7.786;2022-09-23T10:38:54;98888.72;;;18.88;42.40
16544;BME280;8384;47.996;7.786;2022-09-23T10:41:41;98877.72;;;19.43;42.04
16544;BME280;8384;47.996;7.786;2022-09-23T10:44:34;98893.09;;;19.49;41.73
16544;BME280;8384;47.996;7.786;2022-09-23T10:47:37;98881.31;;;19.43;41.13
16544;BME280;8384;47.996;7.786;2022-09-23T10:50:18;98868.06;;;19.72;41.15
16544;BME280;8384;47.996;7.786;2022-09-23T10:55:39;98871.41;;;20.32;39.48
16544;BME280;8384;47.996;7.786;2022-09-23T10:59:07;98878.97;;;19.91;40.69
16544;BME280;8384;47.996;7.786;2022-09-23T11:01:54;98891.78;;;19.78;39.91
16544;BME280;8384;47.996;7.786;2022-09-23T11:04:51;98888.50;;;20.16;39.48
16544;BME280;8384;47.996;7.786;2022-09-23T11:07:44;98877.47;;;20.51;39.35
16544;BME280;8384;47.996;7.786;2022-09-23T11:13:20;98874.41;;;20.62;38.28
16544;BME280;8384;47.996;7.786;2022-09-23T11:16:13;98868.50;;;20.63;37.86
16544;BME280;8384;47.996;7.786;2022-09-23T11:18:49;98862.16;;;19.64;39.00
16544;BME280;8384;47.996;7.786;2022-09-23T11:21:30;98857.72;;;20.53;38.31
16544;BME280;8384;47.996;7.786;2022-09-23T11:24:07;98850.22;;;20.80;36.59
16544;BME280;8384;47.996;7.786;2022-09-23T11:35:01;98833.56;;;20.53;37.32
16544;BME280;8384;47.996;7.786;2022-09-23T11:37:41;98828.31;;;20.70;36.58
16544;BME280;8384;47.996;7.786;2022-09-23T11:40:22;98815.91;;;20.93;36.40
16544;BME280;8384;47.996;7.786;2022-09-23T11:42:59;98819.00;;;21.09;36.59
16544;BME280;8384;47.996;7.786;2022-09-23T11:45:30;98819.03;;;20.83;36.10
16544;BME280;8384;47.996;7.786;2022-09-23T11:48:00;98798.28;;;20.89;36.13
16544;BME280;8384;47.996;7.786;2022-09-23T11:50:35;98816.19;;;21.18;36.23
16544;BME280;8384;47.996;7.786;2022-09-23T11:53:04;98819.75;;;21.36;35.13
16544;BME280;8384;47.996;7.786;2022-09-23T11:55:38;98787.81;;;20.86;36.60
16544;BME280;8384;47.996;7.786;2022-09-23T11:58:15;98811.72;;;22.12;34.60
16544;BME280;8384;47.996;7.786;2022-09-23T12:00:51;98818.06;;;21.53;35.29
16544;BME280;8384;47.996;7.786;2022-09-23T12:03:35;98813.81;;;21.47;34.58
16544;BME280;8384;47.996;7.786;2022-09-23T12:06:05;98803.63;;;21.03;34.67
16544;BME280;8384;47.996;7.786;2022-09-23T12:08:34;98804.81;;;21.97;34.35
16544;BME280;8384;47.996;7.786;2022-09-23T12:11:16;98804.34;;;22.38;33.24
16544;BME280;8384;47.996;7.786;2022-09-23T12:14:20;98808.66;;;22.56;34.40
16544;BME280;8384;47.996;7.786;2022-09-23T12:17:28;98798.88;;;23.05;32.94
16544;BME280;8384;47.996;7.786;2022-09-23T12:25:51;98803.16;;;23.36;32.11
16544;BME280;8384;47.996;7.786;2022-09-23T12:28:22;98783.41;;;23.41;31.67
16544;BME280;8384;47.996;7.786;2022-09-23T12:30:53;98793.16;;;22.68;33.62
16544;BME280;8384;47.996;7.786;2022-09-23T12:33:25;98800.66;;;22.76;34.29
16544;BME280;8384;47.996;7.786;2022-09-23T12:35:53;98803.16;;;22.90;34.22
16544;BME280;8384;47.996;7.786;2022-09-23T12:38:32;98777.53;;;21.82;35.31
16544;BME280;8384;47.996;7.786;2022-09-23T12:40:59;98767.53;;;22.11;35.13
16544;BME280;8384;47.996;7.786;2022-09-23T12:43:30;98788.38;;;23.23;34.08
16544;BME280;8384;47.996;7.786;2022-09-23T12:46:19;98773.78;;;24.13;32.90
16544;BME280;8384;47.996;7.786;2022-09-23T12:48:56;98759.00;;;22.58;34.56
16544;BME280;8384;47.996;7.786;2022-09-23T12:51:31;98775.66;;;22.46;35.66
16544;BME280;8384;47.996;7.786;2022-09-23T12:54:14;98754.56;;;22.57;35.46
16544;BME280;8384;47.996;7.786;2022-09-23T12:59:27;98763.22;;;23.57;34.92
16544;BME280;8384;47.996;7.786;2022-09-23T13:01:54;98727.75;;;23.45;33.97
16544;BME280;8384;47.996;7.786;2022-09-23T13:04:32;98764.69;;;22.20;36.62
16544;BME280;8384;47.996;7.786;2022-09-23T13:07:28;98741.47;;;23.38;35.64
16544;BME280;8384;47.996;7.786;2022-09-23T13:10:05;98743.34;;;22.02;36.87
16544;BME280;8384;47.996;7.786;2022-09-23T13:12:34;98751.78;;;22.15;37.43
16544;BME280;8384;47.996;7.786;2022-09-23T13:15:03;98743.72;;;23.11;36.28
16544;BME280;8384;47.996;7.786;2022-09-23T13:17:33;98748.00;;;23.08;33.00
16544;BME280;8384;47.996;7.786;2022-09-23T13:25:23;98727.00;;;22.43;34.11
16544;BME280;8384;47.996;7.786;2022-09-23T13:27:54;98730.28;;;21.73;33.68
16544;BME280;8384;47.996;7.786;2022-09-23T13:30:22;98732.25;;;21.72;34.53
16544;BME280;8384;47.996;7.786;2022-09-23T13:32:59;98726.91;;;21.88;33.53
16544;BME280;8384;47.996;7.786;2022-09-23T13:35:31;98724.50;;;22.08;33.47
16544;BME280;8384;47.996;7.786;2022-09-23T13:37:57;98731.25;;;21.77;34.01
16544;BME280;8384;47.996;7.786;2022-09-23T13:40:27;98707.25;;;21.64;35.59
16544;BME280;8384;47.996;7.786;2022-09-23T13:42:59;98727.88;;;21.93;34.82
16544;BME280;8384;47.996;7.786;2022-09-23T13:45:27;98696.56;;;21.45;34.97
16544;BME280;8384;47.996;7.786;2022-09-23T13:47:57;98690.41;;;21.60;34.78
16544;BME280;8384;47.996;7.786;2022-09-23T13:50:25;98711.50;;;21.70;34.89
16544;BME280;8384;47.996;7.786;2022-09-23T13:52:52;98715.25;;;22.16;33.74
16544;BME280;8384;47.996;7.786;2022-09-23T13:55:38;98710.50;;;22.17;33.99
16544;BME280;8384;47.996;7.786;2022-09-23T14:00:37;98670.31;;;22.27;34.02
16544;BME280;8384;47.996;7.786;2022-09-23T14:03:15;98697.94;;;22.32;34.26
16544;BME280;8384;47.996;7.786;2022-09-23T14:05:41;98647.38;;;21.87;35.22
16544;BME280;8384;47.996;7.786;2022-09-23T14:08:07;98703.25;;;22.25;35.42
16544;BME280;8384;47.996;7.786;2022-09-23T14:10:32;98615.09;;;21.74;36.35
16544;BME280;8384;47.996;7.786;2022-09-23T14:12:58;98668.28;;;22.15;35.72
16544;BME280;8384;47.996;7.786;2022-09-23T14:15:23;98690.94;;;22.05;36.83
16544;BME280;8384;47.996;7.786;2022-09-23T14:18:02;98675.72;;;22.44;36.06
16544;BME280;8384;47.996;7.786;2022-09-23T14:20:28;98630.28;;;21.77;37.35
16544;BME280;8384;47.996;7.786;2022-09-23T14:23:10;98637.19;;;22.13;37.03
16544;BME280;8384;47.996;7.786;2022-09-23T14:25:36;98668.63;;;21.71;38.27
16544;BME280;8384;47.996;7.786;2022-09-23T14:28:02;98616.75;;;21.15;39.38
16544;BME280;8384;47.996;7.786;2022-09-23T14:30:28;98632.88;;;21.22;39.29
16544;BME280;8384;47.996;7.786;2022-09-23T14:32:54;98645.06;;;21.90;38.65
16544;BME280;8384;47.996;7.786;2022-09-23T14:35:23;98585.88;;;21.38;38.41
16544;BME280;8384;47.996;7.786;2022-09-23T14:37:52;98675.75;;;21.81;38.05
16544;BME280;8384;47.996;7.786;2022-09-23T14:40:50;98653.50;;;21.51;39.18
16544;BME280;8384;47.996;7.786;2022-09-23T14:43:24;98647.81;;;21.17;41.04
16544;BME280;8384;47.996;7.786;2022-09-23T14:45:55;98600.91;;;21.16;39.07
16544;BME280;8384;47.996;7.786;2022-09-23T14:48:30;98627.66;;;21.50;38.88
16544;BME280;8384;47.996;7.786;2022-09-23T14:51:01;98604.63;;;20.81;41.40
16544;BME280;8384;47.996;7.786;2022-09-23T14:53:41;98643.69;;;21.23;40.54
16544;BME280;8384;47.996;7.786;2022-09-23T14:56:15;98640.13;;;21.44;40.65
16544;BME280;8384;47.996;7.786;2022-09-23T14:58:57;98642.41;;;21.12;42.00